createdAt,value
2023-04-25T00:00:24.772Z,12.29
2023-04-25T00:05:46.915Z,12.29
2023-04-25T00:11:08.768Z,12.27
2023-04-25T00:16:30.907Z,12.27
2023-04-25T00:21:53.775Z,12.27
2023-04-25T00:27:15.756Z,12.28
2023-04-25T00:32:37.790Z,12.29
2023-04-25T00:37:59.759Z,12.27
2023-04-25T00:43:21.770Z,12.26
2023-04-25T00:48:43.789Z,12.22
2023-04-25T00:54:05.783Z,12.19
2023-04-25T00:59:27.738Z,12.16
2023-04-25T01:04:49.753Z,12.11
2023-04-25T01:10:13.778Z,12.11
2023-04-25T01:15:35.747Z,12.07
2023-04-25T01:21:01.778Z,12.02
2023-04-25T01:26:24.736Z,11.98
2023-04-25T01:31:46.789Z,11.98
2023-04-25T01:37:10.740Z,11.94
2023-04-25T01:42:32.731Z,11.91
2023-04-25T01:47:57.793Z,11.90
2023-04-25T01:53:21.766Z,11.87
2023-04-25T01:58:43.719Z,11.80
2023-04-25T02:04:08.992Z,11.76
2023-04-25T02:09:30.734Z,11.73
2023-04-25T02:14:54.742Z,11.67
2023-04-25T02:20:27.793Z,11.63
2023-04-25T02:25:50.753Z,11.55
2023-04-25T02:31:12.786Z,11.51
2023-04-25T02:36:34.726Z,11.49
2023-04-25T02:41:56.737Z,11.43
2023-04-25T02:47:18.787Z,11.44
2023-04-25T02:52:40.735Z,11.46
2023-04-25T02:58:06.754Z,11.46
2023-04-25T03:03:33.760Z,11.48
2023-04-25T03:08:55.741Z,11.50
2023-04-25T03:14:17.740Z,11.48
2023-04-25T03:19:39.736Z,11.47
2023-04-25T03:25:01.741Z,11.47
2023-04-25T03:30:23.743Z,11.46
2023-04-25T03:35:45.710Z,11.43
2023-04-25T03:41:08.738Z,11.36
2023-04-25T03:46:37.712Z,11.35
2023-04-25T03:51:59.734Z,11.35
2023-04-25T03:57:25.736Z,11.35
2023-04-25T04:02:47.829Z,11.31
2023-04-25T04:08:09.704Z,11.32
2023-04-25T04:13:32.722Z,11.32
2023-04-25T04:18:55.713Z,11.28
2023-04-25T04:24:17.716Z,11.25
2023-04-25T04:29:45.706Z,11.24
2023-04-25T04:35:16.697Z,11.27
2023-04-25T04:40:39.679Z,11.32
2023-04-25T04:46:11.747Z,11.29
2023-04-25T04:51:52.726Z,11.30
2023-04-25T04:57:29.720Z,11.30
2023-04-25T05:03:10.845Z,11.28
2023-04-25T05:08:41.786Z,11.25
2023-04-25T05:14:22.691Z,11.15
2023-04-25T05:19:55.689Z,11.10
2023-04-25T05:25:40.676Z,11.10
2023-04-25T05:31:21.738Z,11.12
2023-04-25T05:36:55.684Z,11.10
2023-04-25T05:42:18.682Z,11.07
2023-04-25T05:47:46.686Z,11.09
2023-04-25T05:53:21.670Z,11.12
2023-04-25T05:58:48.692Z,11.02
2023-04-25T06:04:10.905Z,11.02
2023-04-25T06:09:32.673Z,11.04
2023-04-25T06:14:54.752Z,11.00
2023-04-25T06:20:16.685Z,11.01
2023-04-25T06:25:39.661Z,10.99
2023-04-25T06:31:01.686Z,11.06
2023-04-25T06:36:23.665Z,11.12
2023-04-25T06:41:52.682Z,11.15
2023-04-25T06:47:29.725Z,11.11
2023-04-25T06:52:51.670Z,11.26
2023-04-25T06:58:14.648Z,11.43
2023-04-25T07:03:53.004Z,11.47
2023-04-25T07:09:14.646Z,11.53
2023-04-25T07:14:38.661Z,11.50
2023-04-25T07:20:00.681Z,11.53
2023-04-25T07:25:22.675Z,11.61
2023-04-25T07:30:44.640Z,11.73
2023-04-25T07:36:06.661Z,11.78
2023-04-25T07:41:28.655Z,11.88
2023-04-25T07:46:50.654Z,11.98
2023-04-25T07:52:16.672Z,12.11
2023-04-25T07:57:45.652Z,12.27
2023-04-25T08:03:08.884Z,12.32
2023-04-25T08:08:31.720Z,12.31
2023-04-25T08:13:54.695Z,12.35
2023-04-25T08:19:16.967Z,12.35
2023-04-25T08:24:39.962Z,12.57
2023-04-25T08:30:01.722Z,12.58
2023-04-25T08:35:24.678Z,12.55
2023-04-25T08:40:51.678Z,12.51
2023-04-25T08:46:13.841Z,12.45
2023-04-25T08:52:04.645Z,12.33
2023-04-25T08:57:28.645Z,12.32
2023-04-25T09:02:50.831Z,12.27
2023-04-25T09:08:12.614Z,12.38
2023-04-25T09:13:43.632Z,12.44
2023-04-25T09:19:12.625Z,12.33
2023-04-25T09:24:56.640Z,12.13
2023-04-25T09:30:18.667Z,11.85
2023-04-25T09:36:00.634Z,11.83
2023-04-25T09:41:34.655Z,11.83
2023-04-25T09:47:00.615Z,11.89
2023-04-25T09:52:25.847Z,12.05
2023-04-25T09:58:05.619Z,12.13
2023-04-25T10:03:31.870Z,11.99
2023-04-25T10:09:06.628Z,11.85
2023-04-25T10:14:29.622Z,11.77
2023-04-25T10:19:51.590Z,11.69
2023-04-25T10:25:21.644Z,11.76
2023-04-25T10:30:43.621Z,11.92
2023-04-25T10:36:05.600Z,12.20
2023-04-25T10:41:29.625Z,12.42
2023-04-25T10:46:51.658Z,12.49
2023-04-25T10:52:20.911Z,12.57
2023-04-25T10:57:52.615Z,12.57
2023-04-25T11:03:14.961Z,12.75
2023-04-25T11:08:53.007Z,12.91
2023-04-25T11:14:14.895Z,12.93
2023-04-25T11:19:37.647Z,12.86
2023-04-25T11:24:59.593Z,12.91
2023-04-25T11:30:26.746Z,12.93
2023-04-25T11:35:48.664Z,13.00
2023-04-25T11:41:11.886Z,13.14
2023-04-25T11:46:33.729Z,13.26
2023-04-25T11:51:56.642Z,13.43
2023-04-25T11:57:19.627Z,13.54
2023-04-25T12:02:41.727Z,13.55
2023-04-25T12:08:03.875Z,13.56
2023-04-25T12:13:36.610Z,13.55
2023-04-25T12:19:00.678Z,13.49
2023-04-25T12:24:39.084Z,13.49
2023-04-25T12:30:03.591Z,13.49
2023-04-25T12:35:25.575Z,13.50
2023-04-25T12:40:47.577Z,13.58
2023-04-25T12:46:09.608Z,13.63
2023-04-25T12:51:32.572Z,13.56
2023-04-25T12:56:55.587Z,13.43
2023-04-25T13:02:24.655Z,13.36
2023-04-25T13:07:46.568Z,13.31
2023-04-25T13:13:08.643Z,13.35
2023-04-25T13:18:33.593Z,13.46
2023-04-25T13:23:55.767Z,13.37
2023-04-25T13:29:17.573Z,13.30
2023-04-25T13:34:39.559Z,13.29
2023-04-25T13:40:02.584Z,13.28
2023-04-25T13:45:24.581Z,13.27
2023-04-25T13:50:46.688Z,13.37
2023-04-25T13:56:08.570Z,13.40
2023-04-25T14:01:38.615Z,13.43
2023-04-25T14:07:00.603Z,13.58
2023-04-25T14:12:22.566Z,13.62
2023-04-25T14:17:44.632Z,13.43
2023-04-25T14:23:06.648Z,13.26
2023-04-25T14:28:28.606Z,13.14
2023-04-25T14:33:50.710Z,13.11
2023-04-25T14:39:15.873Z,13.12
2023-04-25T14:44:37.617Z,13.05
2023-04-25T14:50:01.737Z,13.04
2023-04-25T14:55:23.589Z,13.07
2023-04-25T15:00:45.608Z,13.20
2023-04-25T15:06:09.564Z,13.22
2023-04-25T15:11:31.573Z,13.14
2023-04-25T15:16:53.596Z,13.20
2023-04-25T15:22:15.564Z,13.15
2023-04-25T15:27:38.592Z,13.07
2023-04-25T15:33:00.651Z,13.03
2023-04-25T15:38:22.535Z,13.05
2023-04-25T15:43:45.542Z,13.06
2023-04-25T15:49:07.568Z,13.06
2023-04-25T15:54:29.545Z,13.01
2023-04-25T15:59:51.579Z,12.94
2023-04-25T16:05:13.720Z,12.90
2023-04-25T16:10:35.544Z,12.93
2023-04-25T16:15:57.559Z,12.99
2023-04-25T16:21:22.542Z,12.99
2023-04-25T16:26:44.537Z,12.88
2023-04-25T16:32:06.538Z,12.89
2023-04-25T16:37:28.525Z,12.82
2023-04-25T16:42:50.510Z,12.78
2023-04-25T16:48:12.573Z,12.74
2023-04-25T16:53:34.513Z,12.68
2023-04-25T16:58:56.540Z,12.63
2023-04-25T17:04:18.661Z,12.71
2023-04-25T17:09:40.503Z,12.77
2023-04-25T17:15:02.503Z,12.84
2023-04-25T17:20:24.521Z,12.91
2023-04-25T17:25:46.527Z,13.05
2023-04-25T17:31:08.611Z,13.13
2023-04-25T17:36:30.513Z,13.09
2023-04-25T17:41:52.504Z,12.93
2023-04-25T17:47:14.497Z,12.85
2023-04-25T17:52:36.522Z,12.84
2023-04-25T17:57:58.508Z,12.82
2023-04-25T18:03:27.682Z,12.76
2023-04-25T18:08:51.680Z,12.74
2023-04-25T18:14:14.498Z,12.71
2023-04-25T18:19:36.486Z,12.66
2023-04-25T18:24:58.513Z,12.62
2023-04-25T18:30:20.529Z,12.55
2023-04-25T18:35:55.348Z,12.47
2023-04-25T18:41:42.169Z,12.43
2023-04-25T18:47:02.481Z,12.38
2023-04-25T18:52:25.496Z,12.32
2023-04-25T18:57:47.571Z,12.19
2023-04-25T19:03:16.588Z,12.10
2023-04-25T19:08:38.539Z,12.05
2023-04-25T19:14:04.514Z,12.01
2023-04-25T19:19:26.476Z,11.98
2023-04-25T19:24:52.951Z,11.96
2023-04-25T19:30:24.471Z,11.97
2023-04-25T19:35:46.487Z,11.97
2023-04-25T19:41:08.485Z,11.96
2023-04-25T19:46:30.507Z,11.97
2023-04-25T19:51:52.478Z,11.97
2023-04-25T19:57:14.517Z,11.96
2023-04-25T20:02:36.603Z,11.89
2023-04-25T20:07:58.502Z,11.90
2023-04-25T20:13:20.502Z,11.88
2023-04-25T20:18:42.484Z,11.88
2023-04-25T20:24:04.472Z,11.85
2023-04-25T20:29:26.472Z,11.85
2023-04-25T20:34:48.466Z,11.84
2023-04-25T20:40:12.480Z,11.82
2023-04-25T20:45:38.498Z,11.81
2023-04-25T20:51:00.479Z,11.81
2023-04-25T20:56:23.455Z,11.78
2023-04-25T21:01:45.502Z,11.71
2023-04-25T21:07:22.456Z,11.71
2023-04-25T21:12:44.497Z,11.73
2023-04-25T21:18:06.519Z,11.69
2023-04-25T21:23:28.456Z,11.68
2023-04-25T21:28:50.575Z,11.63
2023-04-25T21:34:13.454Z,11.61
2023-04-25T21:39:35.461Z,11.58
2023-04-25T21:44:57.656Z,11.45
2023-04-25T21:50:19.494Z,11.42
2023-04-25T21:55:41.462Z,11.43
2023-04-25T22:01:03.455Z,11.44
2023-04-25T22:06:25.447Z,11.48
2023-04-25T22:11:49.466Z,11.50
2023-04-25T22:17:12.447Z,11.50
2023-04-25T22:22:34.431Z,11.49
2023-04-25T22:27:57.452Z,11.49
2023-04-25T22:33:19.470Z,11.46
2023-04-25T22:38:41.453Z,11.45
2023-04-25T22:44:03.431Z,11.43
2023-04-25T22:49:25.453Z,11.38
2023-04-25T22:54:47.428Z,11.34
2023-04-25T23:00:14.449Z,11.30
2023-04-25T23:05:37.430Z,11.28
2023-04-25T23:10:59.434Z,11.26
2023-04-25T23:16:22.467Z,11.22
2023-04-25T23:21:44.445Z,11.19
2023-04-25T23:27:06.419Z,11.15
2023-04-25T23:32:28.462Z,11.10
2023-04-25T23:37:51.443Z,11.01
2023-04-25T23:43:13.456Z,10.93
2023-04-25T23:48:35.446Z,10.88
2023-04-25T23:53:57.400Z,10.79
2023-04-25T23:59:19.418Z,10.71
